Time;durP1;ratioP1;P1;durP2;ratioP2;P2;SDS_P1;SDS_P2;PMS_P1;PMS_P2;Temp;Humidity;BMP_temperature;BMP_pressure;BME280_temperature;BME280_humidity;BME280_pressure;Samples;Min_cycle;Max_cycle;Signal;HPM_P1;HPM_P2
2021/12/23 00:00:40;;;;;;;11.45;7.05;;;7.60;99.90;;;;;;5028447;28;20037;-76
2021/12/23 00:03:05;;;;;;;14.85;7.45;;;7.60;99.90;;;;;;5027325;28;20092;-76
2021/12/23 00:05:31;;;;;;;13.13;6.90;;;7.60;99.90;;;;;;5025085;28;20503;-76
2021/12/23 00:07:58;;;;;;;10.60;7.40;;;7.70;99.90;;;;;;5027578;28;20020;-76
2021/12/23 00:10:24;;;;;;;10.60;7.07;;;7.70;99.90;;;;;;5028106;28;20018;-76
2021/12/23 00:12:49;;;;;;;12.18;7.25;;;7.60;99.90;;;;;;5030053;28;20156;-76
2021/12/23 00:18:05;;;;;;;10.05;6.53;;;7.50;99.90;;;;;;5028467;28;20275;-76
2021/12/23 00:25:47;;;;;;;16.70;7.35;;;7.60;99.90;;;;;;5028212;28;20499;-76
2021/12/23 00:28:13;;;;;;;11.20;7.60;;;7.60;99.90;;;;;;5026673;28;20598;-76
2021/12/23 00:30:38;;;;;;;10.85;6.90;;;7.60;99.90;;;;;;5029808;28;20101;-76
2021/12/23 00:33:04;;;;;;;12.23;6.97;;;7.70;99.90;;;;;;5027486;28;20052;-76
2021/12/23 00:35:30;;;;;;;11.65;6.85;;;7.60;99.90;;;;;;5028612;28;20064;-76
2021/12/23 00:38:04;;;;;;;14.43;7.53;;;7.70;99.90;;;;;;5024057;28;20072;-76
2021/12/23 00:40:30;;;;;;;11.20;6.88;;;7.60;99.90;;;;;;5026238;28;20546;-76
2021/12/23 00:42:56;;;;;;;10.13;6.88;;;7.60;99.90;;;;;;5024154;28;20032;-76
2021/12/23 00:45:22;;;;;;;11.68;6.28;;;7.70;99.90;;;;;;5031580;28;20046;-76
2021/12/23 00:47:48;;;;;;;14.43;6.95;;;7.60;99.90;;;;;;5024587;28;20057;-76
2021/12/23 00:50:14;;;;;;;13.90;8.38;;;7.60;99.90;;;;;;5023625;28;20124;-76
2021/12/23 00:52:41;;;;;;;13.10;6.75;;;7.70;99.90;;;;;;5031607;28;20039;-76
2021/12/23 00:55:10;;;;;;;11.63;7.80;;;7.80;99.90;;;;;;5031415;28;20017;-76
2021/12/23 00:57:39;;;;;;;13.82;7.78;;;7.80;99.90;;;;;;5031623;28;20029;-76
2021/12/23 01:00:08;;;;;;;12.02;7.05;;;7.80;99.90;;;;;;5031654;28;20029;-76
2021/12/23 01:02:34;;;;;;;14.45;7.97;;;7.80;99.90;;;;;;5031530;28;20033;-77
2021/12/23 01:05:02;;;;;;;12.60;7.75;;;7.80;99.90;;;;;;5031182;28;20103;-76
2021/12/23 01:07:28;;;;;;;13.45;8.32;;;7.80;99.90;;;;;;5029795;28;20018;-76
2021/12/23 01:09:53;;;;;;;15.27;8.05;;;7.90;99.90;;;;;;5030897;28;20052;-77
2021/12/23 01:12:24;;;;;;;13.52;8.90;;;7.90;99.90;;;;;;5032348;28;20032;-76
2021/12/23 01:14:57;;;;;;;12.77;7.72;;;7.90;99.90;;;;;;5031245;28;20032;-76
2021/12/23 01:17:31;;;;;;;16.05;7.80;;;7.80;99.90;;;;;;5030796;28;20025;-76
2021/12/23 01:20:00;;;;;;;13.10;8.10;;;7.70;99.90;;;;;;5029515;28;20053;-77
2021/12/23 01:22:26;;;;;;;12.80;8.07;;;7.70;99.90;;;;;;5031170;28;20034;-76
2021/12/23 01:24:52;;;;;;;15.38;7.65;;;7.70;99.90;;;;;;5032274;28;20032;-77
2021/12/23 01:27:18;;;;;;;16.20;7.13;;;7.80;99.90;;;;;;5031656;28;20091;-76
2021/12/23 01:29:43;;;;;;;13.73;7.55;;;7.70;99.90;;;;;;5029714;28;20034;-76
2021/12/23 01:32:09;;;;;;;11.95;6.45;;;7.70;99.90;;;;;;5030726;28;20025;-76
2021/12/23 01:34:36;;;;;;;10.48;6.68;;;7.70;99.90;;;;;;5030788;28;20526;-76
2021/12/23 01:37:03;;;;;;;12.75;6.70;;;7.70;99.90;;;;;;5030834;28;20026;-76
2021/12/23 01:39:29;;;;;;;12.02;8.32;;;7.70;99.90;;;;;;5030764;28;20030;-77
2021/12/23 01:41:56;;;;;;;13.25;6.82;;;7.60;99.90;;;;;;5030917;28;20028;-76
2021/12/23 01:44:22;;;;;;;16.23;7.38;;;7.70;99.90;;;;;;5029017;28;20045;-76
2021/12/23 01:46:48;;;;;;;12.77;6.93;;;7.90;99.90;;;;;;5030740;28;20516;-76
2021/12/23 01:49:14;;;;;;;11.50;7.03;;;7.80;99.90;;;;;;5029600;28;20116;-76
2021/12/23 01:51:39;;;;;;;13.05;6.78;;;7.90;99.90;;;;;;5031945;28;20112;-76
2021/12/23 01:54:05;;;;;;;15.13;7.80;;;7.80;99.90;;;;;;5029662;28;20491;-76
2021/12/23 01:56:31;;;;;;;11.13;7.15;;;8.00;99.90;;;;;;5028780;28;20025;-76
2021/12/23 01:58:57;;;;;;;11.68;7.60;;;7.80;99.90;;;;;;5029972;28;20026;-76
2021/12/23 02:01:23;;;;;;;12.55;6.43;;;7.80;99.90;;;;;;5013716;28;20083;-76
2021/12/23 02:03:49;;;;;;;11.38;7.10;;;7.60;99.90;;;;;;5032148;28;20025;-76
2021/12/23 02:06:15;;;;;;;10.77;6.63;;;7.70;99.90;;;;;;5028757;28;20037;-76
2021/12/23 02:08:42;;;;;;;9.63;6.07;;;7.70;99.90;;;;;;5029798;28;20029;-76
2021/12/23 02:11:10;;;;;;;8.68;5.55;;;7.70;99.90;;;;;;5030242;28;20029;-76
2021/12/23 02:13:37;;;;;;;10.98;6.70;;;7.80;99.90;;;;;;5028930;28;20026;-76
2021/12/23 02:16:04;;;;;;;13.07;7.35;;;7.80;99.90;;;;;;5030164;28;20034;-76
2021/12/23 02:18:30;;;;;;;13.77;7.30;;;7.90;99.90;;;;;;5030293;28;20017;-76
2021/12/23 02:20:57;;;;;;;10.13;6.13;;;7.80;99.90;;;;;;5029697;28;20087;-76
2021/12/23 02:23:24;;;;;;;11.65;6.53;;;7.80;99.90;;;;;;5029608;28;20197;-76
2021/12/23 02:25:50;;;;;;;12.52;5.93;;;7.60;99.90;;;;;;5030214;28;20021;-76
2021/12/23 02:28:17;;;;;;;9.70;6.47;;;7.70;99.90;;;;;;5029955;28;20037;-76
2021/12/23 02:30:43;;;;;;;10.65;6.05;;;7.70;99.90;;;;;;5029625;28;20033;-76
2021/12/23 02:33:10;;;;;;;11.00;6.72;;;7.70;99.90;;;;;;5029654;28;20071;-76
2021/12/23 02:35:36;;;;;;;12.40;6.38;;;7.70;99.90;;;;;;5029869;28;20038;-76
2021/12/23 02:38:04;;;;;;;9.25;6.30;;;7.70;99.90;;;;;;5029685;28;20017;-76
2021/12/23 02:40:37;;;;;;;12.70;6.95;;;7.70;99.90;;;;;;5030333;28;20167;-76
2021/12/23 02:43:24;;;;;;;10.13;6.32;;;7.60;99.90;;;;;;5028522;28;20116;-76
2021/12/23 02:45:53;;;;;;;11.40;6.57;;;7.70;99.90;;;;;;5027224;28;20156;-76
2021/12/23 02:48:29;;;;;;;11.52;6.40;;;7.60;99.90;;;;;;5028861;28;20054;-75
2021/12/23 02:50:56;;;;;;;10.45;6.25;;;7.60;99.90;;;;;;5029276;28;20022;-76
2021/12/23 02:53:22;;;;;;;12.85;6.45;;;7.50;99.90;;;;;;5029579;28;20021;-76
2021/12/23 02:55:48;;;;;;;8.82;5.35;;;7.70;99.90;;;;;;5029701;28;20492;-76
2021/12/23 02:58:15;;;;;;;10.18;5.70;;;7.70;99.90;;;;;;5028947;28;20037;-76
2021/12/23 03:00:43;;;;;;;11.95;6.80;;;7.80;99.90;;;;;;5031156;28;20040;-76
2021/12/23 03:03:09;;;;;;;11.13;5.82;;;7.70;99.90;;;;;;5019051;28;20021;-76
2021/12/23 03:05:34;;;;;;;9.50;5.97;;;7.80;99.90;;;;;;5019259;28;20513;-76
2021/12/23 03:08:01;;;;;;;8.70;5.57;;;7.80;99.90;;;;;;5026965;28;20025;-76
2021/12/23 03:10:27;;;;;;;11.35;6.47;;;7.80;99.90;;;;;;5029318;28;20108;-76
2021/12/23 03:12:54;;;;;;;11.52;5.22;;;7.80;99.90;;;;;;5029533;28;20021;-76
2021/12/23 03:15:20;;;;;;;10.57;5.25;;;7.80;99.90;;;;;;5029634;28;20032;-76
2021/12/23 03:17:46;;;;;;;10.80;5.63;;;7.90;99.90;;;;;;5028584;28;20029;-76
2021/12/23 03:20:12;;;;;;;10.63;5.78;;;8.00;99.90;;;;;;5029101;28;20167;-76
2021/12/23 03:22:38;;;;;;;17.17;6.13;;;8.00;99.90;;;;;;5028803;28;20495;-76
2021/12/23 03:25:04;;;;;;;9.90;6.05;;;8.00;99.90;;;;;;5029125;28;20030;-75
2021/12/23 03:27:31;;;;;;;8.98;5.32;;;8.00;99.90;;;;;;5030375;28;20041;-76
2021/12/23 03:29:56;;;;;;;10.70;5.90;;;7.80;99.90;;;;;;5028993;28;20147;-76
2021/12/23 03:32:23;;;;;;;10.50;5.72;;;7.80;99.90;;;;;;5028796;28;20508;-76
2021/12/23 03:34:49;;;;;;;8.98;5.57;;;8.00;99.90;;;;;;5028512;28;20069;-75
2021/12/23 03:37:14;;;;;;;11.18;5.90;;;7.90;99.90;;;;;;5027113;28;20057;-75
2021/12/23 03:39:40;;;;;;;9.10;5.63;;;7.90;99.90;;;;;;5030268;28;20130;-76
2021/12/23 03:42:06;;;;;;;9.98;6.05;;;7.90;99.90;;;;;;5028358;28;20013;-76
2021/12/23 03:44:32;;;;;;;8.50;5.80;;;8.00;99.90;;;;;;5027092;28;20042;-76
2021/12/23 03:46:58;;;;;;;9.02;5.65;;;8.00;99.90;;;;;;5028425;28;20052;-76
2021/12/23 03:49:24;;;;;;;11.27;5.85;;;8.00;99.90;;;;;;5028623;28;20100;-75
2021/12/23 03:51:49;;;;;;;8.00;6.03;;;8.00;99.90;;;;;;5028920;28;20099;-76
2021/12/23 03:54:15;;;;;;;10.40;5.97;;;7.90;99.90;;;;;;5028063;28;20109;-75
2021/12/23 03:56:43;;;;;;;10.77;5.80;;;8.00;99.90;;;;;;5026800;28;20029;-75
2021/12/23 03:59:09;;;;;;;11.52;5.40;;;8.00;99.90;;;;;;5028492;28;20033;-75
2021/12/23 04:01:35;;;;;;;10.70;5.85;;;8.00;99.90;;;;;;5028325;28;20040;-75
2021/12/23 04:04:01;;;;;;;10.00;5.05;;;8.10;99.90;;;;;;5027377;28;20033;-75
2021/12/23 04:06:26;;;;;;;10.63;6.45;;;8.10;99.90;;;;;;5029427;28;20457;-75
2021/12/23 04:08:54;;;;;;;11.45;6.15;;;8.00;99.90;;;;;;5027635;28;20533;-75
2021/12/23 04:11:20;;;;;;;9.23;5.93;;;8.00;99.90;;;;;;5027602;28;20319;-75
2021/12/23 04:13:46;;;;;;;8.80;6.22;;;8.20;99.90;;;;;;5028589;28;20526;-76
2021/12/23 04:16:11;;;;;;;9.55;5.50;;;8.10;99.90;;;;;;5026896;28;20065;-76
2021/12/23 04:18:37;;;;;;;8.82;5.40;;;8.10;99.90;;;;;;5032991;28;20096;-75
2021/12/23 04:21:03;;;;;;;8.45;5.55;;;8.10;99.90;;;;;;5031870;28;20411;-75
2021/12/23 04:23:31;;;;;;;11.30;6.22;;;8.10;99.90;;;;;;5030977;28;20507;-76
2021/12/23 04:25:58;;;;;;;8.85;5.53;;;8.10;99.90;;;;;;5031716;28;20033;-76
2021/12/23 04:28:25;;;;;;;8.18;5.72;;;8.00;99.90;;;;;;5030734;28;20589;-75
2021/12/23 04:30:52;;;;;;;9.90;5.85;;;8.10;99.90;;;;;;5033930;28;20037;-75
2021/12/23 04:33:17;;;;;;;9.35;5.32;;;8.00;99.90;;;;;;5064079;28;20116;-75
2021/12/23 04:35:43;;;;;;;8.35;5.10;;;8.00;99.90;;;;;;5029911;28;20112;-76
2021/12/23 04:38:09;;;;;;;10.68;6.65;;;8.00;99.90;;;;;;5031439;28;20030;-75
2021/12/23 04:40:36;;;;;;;8.82;5.35;;;8.00;99.90;;;;;;5032223;28;20511;-75
2021/12/23 04:43:04;;;;;;;9.48;5.60;;;7.90;99.90;;;;;;5032059;28;20021;-75
2021/12/23 04:45:30;;;;;;;10.20;5.95;;;8.00;99.90;;;;;;5031670;28;20072;-76
2021/12/23 04:47:56;;;;;;;10.98;5.57;;;7.90;99.90;;;;;;5031908;28;20017;-76
2021/12/23 04:50:22;;;;;;;10.73;5.63;;;7.90;99.90;;;;;;5031858;28;20566;-74
2021/12/23 04:52:48;;;;;;;9.40;5.85;;;8.00;99.90;;;;;;5030829;28;20026;-75
2021/12/23 04:55:15;;;;;;;12.15;6.30;;;8.10;99.90;;;;;;5030855;28;20518;-74
2021/12/23 04:57:41;;;;;;;9.05;4.95;;;8.20;99.90;;;;;;5033394;28;20242;-74
2021/12/23 05:00:10;;;;;;;10.00;5.43;;;8.20;99.90;;;;;;5029711;28;20522;-74
2021/12/23 05:02:36;;;;;;;10.43;6.43;;;8.20;99.90;;;;;;5031117;28;20049;-75
2021/12/23 05:05:03;;;;;;;9.75;5.93;;;8.30;99.90;;;;;;5029001;28;20080;-74
2021/12/23 05:07:29;;;;;;;6.97;4.90;;;8.40;99.90;;;;;;5029517;28;20045;-74
2021/12/23 05:09:54;;;;;;;10.55;6.65;;;8.30;99.90;;;;;;5028848;28;20469;-76
2021/12/23 05:12:20;;;;;;;9.98;5.82;;;8.30;99.90;;;;;;5032539;28;20457;-75
2021/12/23 05:14:46;;;;;;;14.38;5.60;;;8.30;99.90;;;;;;5027711;28;20042;-75
2021/12/23 05:17:11;;;;;;;8.88;5.70;;;8.30;99.90;;;;;;5030168;28;20091;-75
2021/12/23 05:19:37;;;;;;;12.20;5.53;;;8.40;99.90;;;;;;5031832;28;20036;-75
2021/12/23 05:22:03;;;;;;;9.80;5.65;;;8.40;99.90;;;;;;5030033;28;20088;-75
2021/12/23 05:24:29;;;;;;;11.30;5.40;;;8.30;99.90;;;;;;5031895;28;20026;-75
2021/12/23 05:26:54;;;;;;;7.60;5.30;;;8.30;99.90;;;;;;5030932;28;20021;-75
2021/12/23 05:29:20;;;;;;;6.55;4.40;;;8.30;99.90;;;;;;5029598;28;20074;-75
2021/12/23 05:31:46;;;;;;;7.32;4.47;;;8.30;99.90;;;;;;5031488;28;20064;-75
2021/12/23 05:34:11;;;;;;;9.90;5.30;;;8.20;99.90;;;;;;5028807;28;20079;-75
2021/12/23 05:36:37;;;;;;;6.55;4.75;;;8.20;99.90;;;;;;5030771;28;20025;-75
2021/12/23 05:39:04;;;;;;;8.98;4.82;;;8.30;99.90;;;;;;5030271;28;20515;-75
2021/12/23 05:41:29;;;;;;;7.50;4.03;;;8.20;99.90;;;;;;5030504;28;20082;-75
2021/12/23 05:43:58;;;;;;;8.40;4.32;;;8.20;99.90;;;;;;5028866;28;20523;-75
2021/12/23 05:46:24;;;;;;;5.32;3.95;;;8.40;99.90;;;;;;5030553;28;20045;-76
2021/12/23 05:48:50;;;;;;;6.68;4.28;;;8.40;99.90;;;;;;5032263;28;20029;-75
2021/12/23 05:51:17;;;;;;;7.75;4.38;;;8.40;99.90;;;;;;5030139;28;20518;-76
2021/12/23 05:53:42;;;;;;;6.07;4.15;;;8.50;99.90;;;;;;5030549;28;20025;-75
2021/12/23 05:56:08;;;;;;;15.23;5.07;;;8.60;99.90;;;;;;5030261;28;20036;-75
2021/12/23 05:58:34;;;;;;;8.30;4.72;;;8.60;99.90;;;;;;5030777;28;20075;-76
2021/12/23 06:01:00;;;;;;;9.48;4.80;;;8.50;99.90;;;;;;5029414;28;20032;-76
2021/12/23 06:03:26;;;;;;;7.50;4.50;;;8.60;99.90;;;;;;5031301;28;20083;-75
2021/12/23 06:05:53;;;;;;;15.18;5.20;;;8.70;99.90;;;;;;5028636;28;20025;-76
2021/12/23 06:08:18;;;;;;;6.95;4.40;;;8.80;99.90;;;;;;5029623;28;20075;-76
2021/12/23 06:10:44;;;;;;;6.15;4.13;;;8.80;99.90;;;;;;5029999;28;20030;-76
2021/12/23 06:13:10;;;;;;;6.88;4.35;;;8.80;99.90;;;;;;5030250;28;20029;-75
2021/12/23 06:15:36;;;;;;;5.43;4.03;;;8.80;99.90;;;;;;5030550;28;20499;-76
2021/12/23 06:18:01;;;;;;;6.38;4.47;;;8.80;99.90;;;;;;5028967;28;20031;-76
2021/12/23 06:20:27;;;;;;;5.28;3.58;;;8.80;99.90;;;;;;5029879;28;20025;-76
2021/12/23 06:22:53;;;;;;;6.18;3.95;;;8.80;99.90;;;;;;5029901;28;20530;-76
2021/12/23 06:25:19;;;;;;;8.75;4.25;;;8.80;99.90;;;;;;5029406;28;20578;-75
2021/12/23 06:27:44;;;;;;;5.25;3.42;;;8.80;99.90;;;;;;5030469;28;20029;-76
2021/12/23 06:30:24;;;;;;;7.13;4.00;;;8.80;99.90;;;;;;5030132;28;20238;-76
2021/12/23 06:32:52;;;;;;;6.68;4.13;;;8.80;99.90;;;;;;5028022;28;20716;-76
2021/12/23 06:35:19;;;;;;;6.78;4.55;;;8.90;99.90;;;;;;5028938;28;20506;-76
2021/12/23 06:37:45;;;;;;;6.15;4.53;;;9.00;99.90;;;;;;5027815;28;20056;-76
2021/12/23 06:40:12;;;;;;;7.25;5.07;;;9.10;99.90;;;;;;5012420;28;20021;-75
2021/12/23 06:42:38;;;;;;;5.90;4.07;;;9.10;99.90;;;;;;5016060;28;20029;-75
2021/12/23 06:45:05;;;;;;;4.75;3.92;;;9.10;99.90;;;;;;5025668;28;20147;-76
2021/12/23 06:47:32;;;;;;;5.47;4.05;;;9.10;99.90;;;;;;5027697;28;20025;-76
2021/12/23 06:49:58;;;;;;;5.75;4.13;;;9.00;99.90;;;;;;5027584;28;20022;-76
2021/12/23 06:52:24;;;;;;;6.15;3.75;;;9.10;99.90;;;;;;5028923;28;20021;-75
2021/12/23 06:54:53;;;;;;;6.38;4.55;;;9.10;99.90;;;;;;5030198;28;20399;-75
2021/12/23 06:57:20;;;;;;;5.55;3.95;;;9.10;99.90;;;;;;5027379;28;20071;-76
2021/12/23 06:59:46;;;;;;;6.40;4.07;;;9.10;99.90;;;;;;5029305;28;20109;-76
2021/12/23 07:02:11;;;;;;;10.00;4.75;;;9.10;99.90;;;;;;5027838;28;20103;-76
2021/12/23 07:04:39;;;;;;;5.55;3.58;;;9.10;99.90;;;;;;5028985;28;20048;-75
2021/12/23 07:07:12;;;;;;;6.03;4.28;;;9.00;99.90;;;;;;5027590;28;20159;-75
2021/12/23 07:09:41;;;;;;;6.07;3.83;;;9.00;99.90;;;;;;5026001;28;20026;-76
2021/12/23 07:12:09;;;;;;;6.68;3.97;;;9.00;99.90;;;;;;5028163;28;20289;-76
2021/12/23 07:14:36;;;;;;;6.68;3.97;;;9.00;99.90;;;;;;5027457;28;20026;-76
2021/12/23 07:17:02;;;;;;;7.68;4.80;;;9.00;99.90;;;;;;5027318;28;20048;-76
2021/12/23 07:19:28;;;;;;;6.28;4.03;;;9.00;99.90;;;;;;5026490;28;20124;-76
2021/12/23 07:21:54;;;;;;;6.65;4.47;;;9.00;99.90;;;;;;5028936;28;20104;-76
2021/12/23 07:24:21;;;;;;;5.70;4.18;;;9.10;99.90;;;;;;5028932;28;20022;-76
2021/12/23 07:26:47;;;;;;;6.25;4.45;;;9.00;99.90;;;;;;5028068;28;20033;-76
2021/12/23 07:29:13;;;;;;;6.82;4.00;;;9.00;99.90;;;;;;5028320;28;20163;-76
2021/12/23 07:31:39;;;;;;;5.90;4.13;;;9.00;99.90;;;;;;5028221;28;20013;-76
2021/12/23 07:34:05;;;;;;;7.82;4.70;;;9.10;99.90;;;;;;5028214;28;20072;-76
2021/12/23 07:36:31;;;;;;;7.35;4.57;;;9.10;99.90;;;;;;5029423;28;20065;-76
2021/12/23 07:38:57;;;;;;;7.40;4.68;;;9.10;99.90;;;;;;5025694;28;20025;-75
2021/12/23 07:41:27;;;;;;;8.73;4.80;;;9.10;99.90;;;;;;5026380;28;20499;-76
2021/12/23 07:43:58;;;;;;;7.55;4.60;;;9.10;99.90;;;;;;5027577;28;20216;-76
2021/12/23 07:46:29;;;;;;;6.18;4.13;;;9.10;99.90;;;;;;5027869;28;20072;-77
2021/12/23 07:48:56;;;;;;;6.63;4.97;;;9.10;99.90;;;;;;5028498;28;20495;-76
2021/12/23 07:51:22;;;;;;;6.10;4.03;;;9.10;99.90;;;;;;5028588;28;20026;-76
2021/12/23 07:53:48;;;;;;;6.80;3.78;;;9.10;99.90;;;;;;5025519;28;20040;-76
2021/12/23 07:56:14;;;;;;;8.45;4.47;;;9.10;99.90;;;;;;5026527;28;20418;-76
2021/12/23 07:58:40;;;;;;;9.05;5.07;;;9.10;99.90;;;;;;5025451;28;20025;-76
2021/12/23 08:01:06;;;;;;;5.97;4.32;;;9.20;99.90;;;;;;5028578;28;20465;-76
2021/12/23 08:03:32;;;;;;;4.65;3.40;;;9.20;99.90;;;;;;5029382;28;20025;-76
2021/12/23 08:05:58;;;;;;;7.05;4.85;;;9.10;99.90;;;;;;5020291;28;20017;-76
2021/12/23 08:08:24;;;;;;;5.30;4.45;;;9.20;99.90;;;;;;5016654;28;20014;-75
2021/12/23 08:10:50;;;;;;;6.10;4.15;;;9.20;99.90;;;;;;5023348;28;20548;-75
2021/12/23 08:13:16;;;;;;;6.32;4.35;;;9.20;99.90;;;;;;5027483;28;20119;-75
2021/12/23 08:15:43;;;;;;;5.35;4.18;;;9.20;99.90;;;;;;5029366;28;20128;-75
2021/12/23 08:18:09;;;;;;;7.75;3.95;;;9.30;99.90;;;;;;5027566;28;20064;-76
2021/12/23 08:20:35;;;;;;;8.50;5.38;;;9.30;99.90;;;;;;5028185;28;20076;-76
2021/12/23 08:23:01;;;;;;;7.53;3.85;;;9.40;99.90;;;;;;5027867;28;20026;-76
2021/12/23 08:25:27;;;;;;;4.78;3.55;;;9.40;99.90;;;;;;5025765;28;20083;-76
2021/12/23 08:27:52;;;;;;;7.22;4.55;;;9.40;99.90;;;;;;5028313;28;20526;-76
2021/12/23 08:30:20;;;;;;;7.07;4.18;;;9.40;99.90;;;;;;5028647;28;20033;-75
2021/12/23 08:32:48;;;;;;;5.53;3.80;;;9.40;99.90;;;;;;5026593;28;20048;-75
2021/12/23 08:35:15;;;;;;;5.65;3.95;;;9.50;99.90;;;;;;5028502;28;20037;-75
2021/12/23 08:37:45;;;;;;;5.20;3.70;;;9.50;99.90;;;;;;5026775;28;20044;-76
2021/12/23 08:40:12;;;;;;;8.07;4.93;;;9.50;99.90;;;;;;5026897;28;20067;-75
2021/12/23 08:42:38;;;;;;;5.70;4.05;;;9.40;99.90;;;;;;5028262;28;20029;-75
2021/12/23 08:45:05;;;;;;;5.40;3.50;;;9.40;99.90;;;;;;5026828;28;20046;-76
2021/12/23 08:47:31;;;;;;;6.22;4.13;;;9.50;99.90;;;;;;5023275;28;20033;-76
2021/12/23 08:49:57;;;;;;;7.38;3.67;;;9.50;99.90;;;;;;5025796;28;20017;-76
2021/12/23 08:52:23;;;;;;;4.05;3.65;;;9.50;99.90;;;;;;5027680;28;20030;-76
2021/12/23 08:54:49;;;;;;;4.70;3.75;;;9.50;99.90;;;;;;5024279;28;20517;-76
2021/12/23 08:57:15;;;;;;;6.35;3.83;;;9.60;99.90;;;;;;5028333;28;20095;-75
2021/12/23 08:59:41;;;;;;;4.70;3.20;;;9.60;99.90;;;;;;5025853;28;20025;-76
2021/12/23 09:02:07;;;;;;;5.20;3.25;;;9.60;99.90;;;;;;5025195;28;20034;-76
2021/12/23 09:04:33;;;;;;;6.03;4.03;;;9.60;99.90;;;;;;5012909;28;20025;-75
2021/12/23 09:06:59;;;;;;;4.85;3.30;;;9.60;99.90;;;;;;5028732;28;20051;-76
2021/12/23 09:09:25;;;;;;;3.88;3.03;;;9.60;99.90;;;;;;5031928;28;20487;-76
2021/12/23 09:11:51;;;;;;;4.28;3.53;;;9.60;99.90;;;;;;5030676;28;20068;-76
2021/12/23 09:14:17;;;;;;;4.55;3.08;;;9.70;99.90;;;;;;5030429;28;20049;-76
2021/12/23 09:16:43;;;;;;;5.90;3.20;;;9.70;99.90;;;;;;5030758;28;20152;-76
2021/12/23 09:19:09;;;;;;;4.28;3.10;;;9.70;99.90;;;;;;5029899;28;20518;-76
2021/12/23 09:21:36;;;;;;;4.43;3.58;;;9.70;99.90;;;;;;5033285;28;20164;-75
2021/12/23 09:24:03;;;;;;;4.60;3.55;;;9.80;99.90;;;;;;5028322;28;20029;-76
2021/12/23 09:26:32;;;;;;;4.97;3.95;;;9.80;99.90;;;;;;5030478;28;20031;-76
2021/12/23 09:29:07;;;;;;;4.60;3.33;;;9.80;99.90;;;;;;5028269;28;20021;-76
2021/12/23 09:34:17;;;;;;;5.90;3.60;;;9.90;99.90;;;;;;5017458;28;20032;-76
2021/12/23 09:36:43;;;;;;;6.72;4.05;;;9.90;99.90;;;;;;5032500;28;20025;-76
2021/12/23 09:39:11;;;;;;;6.97;3.85;;;9.90;99.90;;;;;;5030492;28;20028;-76
2021/12/23 09:41:39;;;;;;;4.55;3.55;;;10.00;99.90;;;;;;5025083;28;20341;-76
2021/12/23 09:44:08;;;;;;;5.25;3.88;;;10.00;99.90;;;;;;5019619;28;20042;-76
2021/12/23 09:46:34;;;;;;;6.78;3.78;;;10.00;99.90;;;;;;5031098;28;20037;-77
2021/12/23 09:49:01;;;;;;;5.40;3.97;;;10.00;99.90;;;;;;5031307;28;20036;-77
2021/12/23 09:51:29;;;;;;;6.78;4.15;;;10.00;99.90;;;;;;5030284;28;20503;-77
2021/12/23 09:54:01;;;;;;;5.57;4.10;;;10.00;99.90;;;;;;5026135;28;20033;-76
2021/12/23 09:56:28;;;;;;;6.65;4.45;;;10.00;99.90;;;;;;5029347;28;20091;-77
2021/12/23 09:58:57;;;;;;;5.82;4.53;;;10.00;99.90;;;;;;5030050;28;20030;-76
2021/12/23 10:01:24;;;;;;;6.50;4.55;;;10.00;99.90;;;;;;5029547;28;20026;-77
2021/12/23 10:03:50;;;;;;;5.95;4.45;;;10.00;99.90;;;;;;5028228;28;20049;-77
2021/12/23 10:06:15;;;;;;;9.43;5.28;;;10.10;99.90;;;;;;5020356;28;20469;-77
2021/12/23 10:08:43;;;;;;;7.13;4.72;;;10.10;99.90;;;;;;5029042;28;20576;-77
2021/12/23 10:11:22;;;;;;;5.32;4.47;;;10.10;99.90;;;;;;5027671;28;20516;-77
2021/12/23 10:30:33;;;;;;;7.05;4.53;;;10.30;99.90;;;;;;5033318;28;20036;-77
2021/12/23 10:38:17;;;;;;;4.88;4.03;;;10.50;99.90;;;;;;5025489;28;20565;-77
2021/12/23 10:40:49;;;;;;;5.82;4.25;;;10.60;99.90;;;;;;5030162;28;20112;-77
2021/12/23 10:43:33;;;;;;;7.47;4.72;;;10.60;99.90;;;;;;5029243;28;20040;-77
2021/12/23 10:46:25;;;;;;;6.80;4.40;;;10.60;99.90;;;;;;5030229;28;20029;-77
2021/12/23 10:52:08;;;;;;;5.70;4.07;;;10.60;99.90;;;;;;5030347;28;20041;-77
2021/12/23 11:00:22;;;;;;;7.97;5.22;;;10.60;99.90;;;;;;5029896;28;20532;-76
2021/12/23 11:03:05;;;;;;;6.95;4.53;;;10.60;99.90;;;;;;5030214;28;20038;-77
2021/12/23 11:05:37;;;;;;;6.50;4.55;;;10.60;99.90;;;;;;5029439;28;20271;-77
2021/12/23 11:41:20;;;;;;;5.10;4.40;;;11.00;99.90;;;;;;5007372;28;20076;-76
2021/12/23 11:43:48;;;;;;;6.57;4.50;;;11.10;99.90;;;;;;5006977;28;20038;-77
2021/12/23 11:46:30;;;;;;;7.07;4.10;;;11.30;99.90;;;;;;5007134;28;20041;-76
2021/12/23 11:49:01;;;;;;;6.07;4.25;;;11.30;99.90;;;;;;5004146;28;20046;-77
2021/12/23 11:51:32;;;;;;;7.60;5.18;;;11.40;99.90;;;;;;5007790;28;20022;-77
2021/12/23 11:53:59;;;;;;;6.37;4.67;;;11.40;99.90;;;;;;5006106;28;20105;-76
2021/12/23 11:56:26;;;;;;;9.32;5.43;;;11.40;99.90;;;;;;5005130;28;20284;-76
2021/12/23 11:58:56;;;;;;;8.02;5.38;;;11.40;99.90;;;;;;5004366;28;20028;-77
2021/12/23 12:01:25;;;;;;;7.65;4.55;;;11.40;99.90;;;;;;4989577;28;20068;-77
2021/12/23 12:03:59;;;;;;;9.82;5.38;;;11.40;99.90;;;;;;5003695;28;20108;-77
2021/12/23 12:06:39;;;;;;;8.05;5.00;;;11.30;99.90;;;;;;5004948;28;20056;-77
2021/12/23 12:09:26;;;;;;;9.27;5.43;;;11.30;99.90;;;;;;5005131;28;20026;-76
2021/12/23 12:12:10;;;;;;;8.07;4.90;;;11.30;99.90;;;;;;5004044;28;20216;-77
2021/12/23 12:14:39;;;;;;;7.15;4.07;;;11.30;99.90;;;;;;5011825;28;20033;-77
2021/12/23 12:17:23;;;;;;;8.57;4.55;;;11.30;99.90;;;;;;5027091;28;20033;-77
2021/12/23 12:20:20;;;;;;;7.63;4.75;;;11.50;99.90;;;;;;5025270;28;20030;-77
2021/12/23 12:22:54;;;;;;;7.40;4.28;;;11.80;99.90;;;;;;5012413;28;20049;-77
2021/12/23 12:25:23;;;;;;;7.68;4.35;;;11.80;99.90;;;;;;5028484;28;20026;-77
2021/12/23 12:27:55;;;;;;;5.18;4.40;;;12.10;99.90;;;;;;5029898;28;20052;-77
2021/12/23 12:30:37;;;;;;;6.38;4.65;;;12.10;99.90;;;;;;5023388;28;20029;-77
2021/12/23 12:33:12;;;;;;;6.13;4.95;;;12.10;99.90;;;;;;5023206;28;20032;-77
2021/12/23 12:35:39;;;;;;;8.57;4.65;;;12.30;99.90;;;;;;5026875;28;20028;-77
2021/12/23 12:38:21;;;;;;;5.85;4.45;;;12.20;99.90;;;;;;5022988;28;20076;-77
2021/12/23 12:40:57;;;;;;;6.88;4.80;;;12.20;99.90;;;;;;5029381;28;20104;-76
2021/12/23 12:43:52;;;;;;;6.25;4.97;;;12.10;99.90;;;;;;5032268;28;20083;-77
2021/12/23 12:46:29;;;;;;;6.75;5.18;;;12.10;99.90;;;;;;5031049;28;20043;-77
2021/12/23 12:48:58;;;;;;;6.93;4.95;;;12.10;99.90;;;;;;5028318;28;20028;-77
2021/12/23 12:51:37;;;;;;;7.03;4.78;;;12.10;99.90;;;;;;5031559;28;20479;-77
2021/12/23 12:54:08;;;;;;;7.82;4.68;;;12.20;99.90;;;;;;5032384;28;20017;-77
2021/12/23 12:57:04;;;;;;;7.88;5.28;;;12.20;99.90;;;;;;5028289;28;20076;-77
2021/12/23 12:59:34;;;;;;;8.05;5.32;;;12.20;99.90;;;;;;5029731;28;20506;-77
2021/12/23 13:02:00;;;;;;;7.07;4.93;;;12.10;99.90;;;;;;5029817;28;20039;-77
2021/12/23 13:04:41;;;;;;;5.82;4.20;;;12.10;99.90;;;;;;5030983;28;20030;-77
2021/12/23 13:07:22;;;;;;;9.03;5.63;;;12.20;99.90;;;;;;5016599;28;20034;-77
2021/12/23 13:09:50;;;;;;;;;;;12.20;99.90;;;;;;5029355;28;20025;-77
2021/12/23 13:12:54;;;;;;;6.32;4.30;;;12.20;99.90;;;;;;5029327;28;19967;-77
2021/12/23 13:15:30;;;;;;;8.88;5.07;;;11.90;99.90;;;;;;5032749;28;20026;-77
2021/12/23 13:18:05;;;;;;;7.28;4.85;;;11.60;99.90;;;;;;5032217;28;20101;-77
2021/12/23 13:20:39;;;;;;;7.13;5.47;;;11.70;99.90;;;;;;5032021;28;20026;-77
2021/12/23 13:23:12;;;;;;;7.88;5.78;;;11.70;99.90;;;;;;5031358;28;20055;-77
2021/12/23 13:25:54;;;;;;;8.60;5.75;;;11.60;99.90;;;;;;5031707;28;20029;-77
2021/12/23 13:28:23;;;;;;;8.43;5.22;;;11.60;99.90;;;;;;5031389;28;20082;-76
2021/12/23 13:30:49;;;;;;;6.47;5.03;;;11.60;99.90;;;;;;5032483;28;20018;-77
2021/12/23 13:33:14;;;;;;;9.30;5.32;;;11.60;99.90;;;;;;5030863;28;20483;-77
2021/12/23 13:35:40;;;;;;;8.57;5.50;;;11.80;99.90;;;;;;5030894;28;20030;-77
2021/12/23 13:38:06;;;;;;;7.50;5.32;;;11.80;99.90;;;;;;5030906;28;20036;-77
2021/12/23 13:40:34;;;;;;;6.85;5.15;;;12.00;99.90;;;;;;5031651;28;20557;-77
2021/12/23 13:43:00;;;;;;;8.00;5.47;;;12.00;99.90;;;;;;5031046;28;20095;-77
2021/12/23 13:45:28;;;;;;;7.35;4.68;;;12.10;99.90;;;;;;5031772;28;20526;-77
2021/12/23 13:47:56;;;;;;;7.22;5.50;;;12.10;99.90;;;;;;5029651;28;20613;-78
2021/12/23 13:50:25;;;;;;;8.45;6.18;;;11.90;99.90;;;;;;5029012;28;20032;-77
2021/12/23 13:52:52;;;;;;;8.13;5.72;;;11.60;99.90;;;;;;5030620;28;20037;-77
2021/12/23 13:55:26;;;;;;;5.80;4.75;;;11.60;99.90;;;;;;5029303;28;20021;-77
2021/12/23 13:57:55;;;;;;;9.65;6.22;;;11.60;99.90;;;;;;5028360;28;20026;-77
2021/12/23 14:00:33;;;;;;;6.32;4.97;;;11.40;99.90;;;;;;5029946;28;20348;-78
2021/12/23 14:03:15;;;;;;;9.27;5.45;;;11.50;99.90;;;;;;5029237;28;20033;-78
2021/12/23 14:05:42;;;;;;;6.53;4.85;;;11.40;99.90;;;;;;5025828;28;20503;-78
2021/12/23 14:08:09;;;;;;;8.32;4.75;;;11.50;99.90;;;;;;5020645;28;20034;-78
2021/12/23 14:10:38;;;;;;;7.53;5.00;;;11.40;99.90;;;;;;5028140;28;20030;-78